Time;durP1;ratioP1;P1;durP2;ratioP2;P2;SDS_P1;SDS_P2;PMS_P1;PMS_P2;Temp;Humidity;BMP_temperature;BMP_pressure;BME280_temperature;BME280_humidity;BME280_pressure;Samples;Min_cycle;Max_cycle;Signal;HPM_P1;HPM_P2
2023/08/11 00:00:28;;;;;;;;;;;;;;;22.61;61.24;97321.48;565578;250;65671;-73
2023/08/11 00:02:56;;;;;;;;;;;;;;;22.62;60.66;97322.30;565433;251;65078;-72
2023/08/11 00:05:23;;;;;;;;;;;;;;;22.63;61.06;97323.09;565373;250;67184;-72
2023/08/11 00:07:51;;;;;;;;;;;;;;;22.61;61.25;97318.00;565462;251;66999;-72
2023/08/11 00:10:19;;;;;;;;;;;;;;;22.63;61.70;97323.89;565382;251;62873;-72
2023/08/11 00:12:47;;;;;;;;;;;;;;;22.62;61.30;97327.66;565392;251;65071;-72
2023/08/11 00:15:15;;;;;;;;;;;;;;;22.61;61.88;97326.03;565420;251;66937;-73
2023/08/11 00:17:42;;;;;;;;;;;;;;;22.61;61.79;97321.48;565409;251;64941;-73
2023/08/11 00:20:10;;;;;;;;;;;;;;;22.61;61.70;97315.32;565468;250;64904;-73
2023/08/11 00:22:38;;;;;;;;;;;;;;;22.61;61.80;97312.64;565394;251;67302;-73
2023/08/11 00:25:05;;;;;;;;;;;;;;;22.60;61.64;97308.38;565900;250;65275;-73
2023/08/11 00:27:33;;;;;;;;;;;;;;;22.60;62.58;97308.38;565496;250;67126;-72
2023/08/11 00:30:01;;;;;;;;;;;;;;;22.60;63.06;97311.05;565424;250;67219;-73
2023/08/11 00:32:29;;;;;;;;;;;;;;;22.60;63.37;97305.69;565439;251;62711;-72
2023/08/11 00:34:57;;;;;;;;;;;;;;;22.59;62.99;97312.14;565363;251;65084;-73
2023/08/11 00:37:24;;;;;;;;;;;;;;;22.59;63.12;97312.14;565446;250;66900;-72
2023/08/11 00:39:52;;;;;;;;;;;;;;;22.59;63.20;97309.45;565387;250;65693;-72
2023/08/11 00:42:20;;;;;;;;;;;;;;;22.57;63.33;97308.92;565511;250;64943;-73
2023/08/11 00:44:47;;;;;;;;;;;;;;;22.58;63.17;97307.84;565407;251;66690;-73
2023/08/11 00:47:15;;;;;;;;;;;;;;;22.56;63.47;97313.48;565466;251;64964;-73
2023/08/11 00:49:43;;;;;;;;;;;;;;;22.57;63.27;97319.64;565395;251;66550;-73
2023/08/11 00:52:11;;;;;;;;;;;;;;;22.57;63.39;97319.64;565330;251;64878;-71
2023/08/11 00:54:41;;;;;;;;;;;;;;;22.57;63.75;97325.00;565368;251;65191;-72
2023/08/11 00:57:08;;;;;;;;;;;;;;;22.57;63.73;97330.35;565401;251;67353;-72
2023/08/11 00:59:36;;;;;;;;;;;;;;;22.57;63.78;97331.15;565426;251;67190;-72
2023/08/11 01:02:04;;;;;;;;;;;;;;;22.56;63.81;97340.27;565472;250;65118;-73
2023/08/11 01:04:33;;;;;;;;;;;;;;;22.56;63.80;97328.73;565477;251;64425;-73
2023/08/11 01:07:05;;;;;;;;;;;;;;;22.56;63.87;97336.77;565488;249;66700;-73
2023/08/11 01:09:35;;;;;;;;;;;;;;;22.56;64.07;97334.09;565232;251;65176;-74
2023/08/11 01:12:22;;;;;;;;;;;;;;;22.55;63.90;97333.29;565760;250;67365;-73
2023/08/11 01:14:52;;;;;;;;;;;;;;;22.55;64.17;97321.78;565491;251;64831;-73
2023/08/11 01:17:21;;;;;;;;;;;;;;;22.54;64.05;97323.66;565416;250;64917;-74
2023/08/11 01:19:49;;;;;;;;;;;;;;;22.54;63.73;97331.70;565380;251;67972;-72
2023/08/11 01:22:18;;;;;;;;;;;;;;;22.54;64.14;97325.55;565511;250;64866;-72
2023/08/11 01:24:46;;;;;;;;;;;;;;;22.54;64.08;97336.26;565045;250;64022;-74
2023/08/11 01:27:14;;;;;;;;;;;;;;;22.53;64.13;97340.78;565495;251;67178;-74
2023/08/11 01:29:41;;;;;;;;;;;;;;;22.53;64.06;97340.78;565441;250;66911;-73
2023/08/11 01:32:09;;;;;;;;;;;;;;;22.54;64.36;97344.30;565403;251;64896;-73
2023/08/11 01:34:36;;;;;;;;;;;;;;;22.53;64.14;97339.99;565445;250;64915;-74
2023/08/11 01:37:04;;;;;;;;;;;;;;;22.53;63.99;97342.67;565343;251;66723;-74
2023/08/11 01:39:33;;;;;;;;;;;;;;;22.52;64.15;97354.47;565639;250;65106;-73
2023/08/11 01:42:01;;;;;;;;;;;;;;;22.52;63.93;97347.23;565470;251;65292;-73
2023/08/11 01:44:29;;;;;;;;;;;;;;;22.53;64.21;97353.39;565589;250;67424;-74
2023/08/11 01:46:58;;;;;;;;;;;;;;;22.52;63.76;97351.80;565533;250;65640;-73
2023/08/11 01:49:29;;;;;;;;;;;;;;;22.53;63.65;97350.70;565464;250;64791;-73
2023/08/11 01:51:57;;;;;;;;;;;;;;;22.52;63.73;97349.91;565472;250;67049;-73
2023/08/11 01:54:25;;;;;;;;;;;;;;;22.52;64.10;97349.11;565615;250;65994;-73
2023/08/11 01:56:54;;;;;;;;;;;;;;;22.51;63.84;97347.52;565366;251;64997;-73
2023/08/11 01:59:23;;;;;;;;;;;;;;;22.52;63.79;97346.44;565511;250;64819;-73
2023/08/11 02:01:50;;;;;;;;;;;;;;;22.51;63.95;97352.88;565391;251;62889;-73
2023/08/11 02:04:18;;;;;;;;;;;;;;;22.51;63.85;97358.23;565410;251;66795;-71
2023/08/11 02:06:45;;;;;;;;;;;;;;;22.51;63.84;97363.59;565470;251;64906;-71
2023/08/11 02:09:13;;;;;;;;;;;;;;;22.50;63.77;97360.09;565459;250;62907;-71
2023/08/11 02:11:40;;;;;;;;;;;;;;;22.51;63.97;97358.23;565499;250;67557;-71
2023/08/11 02:14:08;;;;;;;;;;;;;;;22.51;64.01;97358.23;565408;251;66874;-70
2023/08/11 02:16:36;;;;;;;;;;;;;;;22.50;63.86;97360.09;565501;250;62751;-70
2023/08/11 02:19:05;;;;;;;;;;;;;;;22.50;63.71;97356.61;565522;250;67276;-70
2023/08/11 02:21:37;;;;;;;;;;;;;;;22.51;63.84;97358.23;565447;250;67356;-71
2023/08/11 02:24:02;;;;;;;;;;;;;;;22.50;63.74;97356.61;565374;250;62731;-71
2023/08/11 02:26:29;;;;;;;;;;;;;;;22.49;63.65;97363.84;565487;251;64947;-71
2023/08/11 02:28:58;;;;;;;;;;;;;;;22.48;63.77;97359.58;560667;251;68564;-71
2023/08/11 02:31:28;;;;;;;;;;;;;;;22.48;63.54;97361.43;565538;250;65203;-71
2023/08/11 02:33:55;;;;;;;;;;;;;;;22.50;63.84;97367.33;565460;251;64996;-72
2023/08/11 02:36:23;;;;;;;;;;;;;;;22.48;63.34;97370.29;565459;250;64870;-72
2023/08/11 02:38:51;;;;;;;;;;;;;;;22.49;63.52;97365.73;565486;250;63167;-72
2023/08/11 02:41:20;;;;;;;;;;;;;;;22.48;63.32;97362.25;565391;251;67316;-72
2023/08/11 02:43:47;;;;;;;;;;;;;;;22.48;63.58;97356.91;565400;251;66709;-72
2023/08/11 02:46:15;;;;;;;;;;;;;;;22.47;62.96;97357.16;565445;250;66111;-72
2023/08/11 02:48:44;;;;;;;;;;;;;;;22.48;63.27;97358.75;565414;251;67661;-72
2023/08/11 02:51:11;;;;;;;;;;;;;;;22.47;63.49;97359.84;565472;250;67621;-72
2023/08/11 02:53:39;;;;;;;;;;;;;;;22.48;63.52;97356.08;565374;251;64945;-72
2023/08/11 02:56:09;;;;;;;;;;;;;;;22.47;63.22;97359.84;565459;250;67124;-69
2023/08/11 02:58:37;;;;;;;;;;;;;;;22.46;63.32;97359.04;565490;250;65013;-70
2023/08/11 03:01:04;;;;;;;;;;;;;;;22.46;63.46;97361.72;565396;250;65188;-70
2023/08/11 03:03:32;;;;;;;;;;;;;;;22.46;63.08;97375.11;565550;250;67075;-70
2023/08/11 03:06:00;;;;;;;;;;;;;;;22.46;63.37;97363.59;565453;251;64894;-70
2023/08/11 03:08:27;;;;;;;;;;;;;;;22.46;63.13;97359.04;565447;250;65326;-70
2023/08/11 03:10:55;;;;;;;;;;;;;;;22.45;63.18;97362.77;565495;250;65831;-70
2023/08/11 03:13:23;;;;;;;;;;;;;;;22.46;63.19;97363.59;565556;250;64762;-70
2023/08/11 03:15:52;;;;;;;;;;;;;;;22.45;63.05;97364.66;565473;251;64931;-70
2023/08/11 03:18:19;;;;;;;;;;;;;;;22.45;62.96;97370.02;565416;251;66878;-70
2023/08/11 03:20:47;;;;;;;;;;;;;;;22.45;63.21;97376.16;565405;250;67020;-71
2023/08/11 03:23:15;;;;;;;;;;;;;;;22.44;63.00;97377.25;565437;251;62934;-70
2023/08/11 03:25:42;;;;;;;;;;;;;;;22.44;62.90;97381.81;565423;250;66221;-70
2023/08/11 03:28:10;;;;;;;;;;;;;;;22.44;63.14;97390.64;565486;250;66901;-70
2023/08/11 03:30:39;;;;;;;;;;;;;;;22.45;62.73;97380.72;565413;251;62610;-70
2023/08/11 03:33:08;;;;;;;;;;;;;;;22.44;62.90;97381.81;565573;250;67756;-70
2023/08/11 03:35:43;;;;;;;;;;;;;;;22.43;62.79;97383.69;565069;251;49366;-71
2023/08/11 03:38:11;;;;;;;;;;;;;;;22.43;62.68;97388.25;565531;250;64898;-71
2023/08/11 03:40:38;;;;;;;;;;;;;;;22.43;62.64;97389.05;565470;251;67220;-71
2023/08/11 03:43:06;;;;;;;;;;;;;;;22.44;62.66;97395.20;565462;251;66843;-71
2023/08/11 03:45:35;;;;;;;;;;;;;;;22.43;62.68;97391.72;565537;250;64920;-71
2023/08/11 03:48:05;;;;;;;;;;;;;;;22.43;62.38;97388.25;565388;250;44469;-71
2023/08/11 03:50:32;;;;;;;;;;;;;;;22.43;62.28;97393.61;565448;250;66968;-71
2023/08/11 03:53:00;;;;;;;;;;;;;;;22.43;62.62;97388.25;565453;250;62807;-71
2023/08/11 03:55:27;;;;;;;;;;;;;;;22.43;62.71;97390.92;565445;251;67156;-71
2023/08/11 03:57:59;;;;;;;;;;;;;;;22.43;62.66;97396.28;565437;251;67419;-71
2023/08/11 04:00:27;;;;;;;;;;;;;;;22.42;62.73;97392.78;565537;250;65722;-71
2023/08/11 04:02:57;;;;;;;;;;;;;;;22.42;62.72;97389.30;565280;250;48394;-71
2023/08/11 04:05:24;;;;;;;;;;;;;;;22.41;62.51;97393.06;565427;251;66731;-71
2023/08/11 04:07:53;;;;;;;;;;;;;;;22.41;62.48;97393.06;565456;250;65033;-71
2023/08/11 04:10:21;;;;;;;;;;;;;;;22.41;62.68;97395.74;565423;251;67116;-70
2023/08/11 04:12:48;;;;;;;;;;;;;;;22.42;62.64;97400.02;565487;250;68232;-71
2023/08/11 04:15:18;;;;;;;;;;;;;;;22.42;62.69;97397.34;565518;251;50692;-71
2023/08/11 04:17:45;;;;;;;;;;;;;;;22.42;62.26;97405.38;565465;251;67200;-72
2023/08/11 04:20:13;;;;;;;;;;;;;;;22.42;62.51;97397.34;565445;251;67190;-71
2023/08/11 04:22:41;;;;;;;;;;;;;;;22.40;62.33;97400.30;565472;251;65555;-71
2023/08/11 04:25:10;;;;;;;;;;;;;;;22.39;62.51;97404.83;565434;251;67333;-71
2023/08/11 04:27:42;;;;;;;;;;;;;;;22.41;62.53;97409.13;565488;250;45465;-71
2023/08/11 04:30:10;;;;;;;;;;;;;;;22.41;62.39;97409.93;565488;251;65100;-73
2023/08/11 04:32:38;;;;;;;;;;;;;;;22.41;62.65;97406.45;565438;250;67443;-73
2023/08/11 04:35:09;;;;;;;;;;;;;;;22.39;62.53;97412.86;565405;251;67017;-74
2023/08/11 04:37:41;;;;;;;;;;;;;;;22.39;62.38;97410.19;565597;250;64982;-74
2023/08/11 04:40:13;;;;;;;;;;;;;;;22.39;62.54;97412.86;565400;251;46422;-73
2023/08/11 04:42:42;;;;;;;;;;;;;;;22.39;62.38;97415.55;565474;250;66305;-73
2023/08/11 04:45:13;;;;;;;;;;;;;;;22.38;62.47;97413.95;565476;251;66110;-73
2023/08/11 04:47:40;;;;;;;;;;;;;;;22.39;62.42;97407.51;565444;251;67122;-73
2023/08/11 04:50:09;;;;;;;;;;;;;;;22.38;62.29;97413.95;565401;251;67441;-73
2023/08/11 04:52:37;;;;;;;;;;;;;;;22.37;62.41;97412.35;565456;251;62787;-73
2023/08/11 04:55:05;;;;;;;;;;;;;;;22.37;62.52;97412.35;565611;250;66922;-74
2023/08/11 04:57:33;;;;;;;;;;;;;;;22.37;62.59;97423.06;565485;251;66735;-73
2023/08/11 05:00:01;;;;;;;;;;;;;;;22.38;62.44;97423.86;565564;250;62356;-73
2023/08/11 05:02:29;;;;;;;;;;;;;;;22.38;62.49;97429.22;565479;250;67067;-73
2023/08/11 05:04:56;;;;;;;;;;;;;;;22.38;62.34;97429.22;565465;251;66705;-73
2023/08/11 05:07:24;;;;;;;;;;;;;;;22.38;62.30;97432.69;565481;250;64993;-73
2023/08/11 05:09:51;;;;;;;;;;;;;;;22.37;61.85;97433.78;565491;251;67821;-73
2023/08/11 05:12:19;;;;;;;;;;;;;;;22.38;62.26;97431.89;565621;250;64604;-74
2023/08/11 05:14:47;;;;;;;;;;;;;;;22.37;62.41;97441.81;565545;250;62882;-74
2023/08/11 05:17:15;;;;;;;;;;;;;;;22.37;62.45;97425.74;565531;250;64642;-74
2023/08/11 05:19:42;;;;;;;;;;;;;;;22.37;62.55;97423.06;565480;251;64399;-74
2023/08/11 05:22:11;;;;;;;;;;;;;;;22.37;62.33;97427.59;565445;251;62847;-74
2023/08/11 05:24:38;;;;;;;;;;;;;;;22.38;62.50;97426.54;565443;251;67514;-74
2023/08/11 05:27:07;;;;;;;;;;;;;;;22.37;62.47;97431.09;565471;250;67424;-74
2023/08/11 05:29:35;;;;;;;;;;;;;;;22.37;62.55;97423.06;565441;251;65073;-74
2023/08/11 05:32:02;;;;;;;;;;;;;;;22.37;62.58;97432.95;565448;251;67216;-71
2023/08/11 05:34:30;;;;;;;;;;;;;;;22.36;62.53;97429.48;565429;250;67218;-71
2023/08/11 05:36:57;;;;;;;;;;;;;;;22.36;62.72;97426.80;565396;251;66213;-71
2023/08/11 05:39:28;;;;;;;;;;;;;;;22.36;62.26;97424.12;565475;251;64936;-71
2023/08/11 05:41:58;;;;;;;;;;;;;;;22.36;62.42;97428.67;565273;250;47860;-70
2023/08/11 05:44:26;;;;;;;;;;;;;;;22.36;62.19;97426.80;565483;250;62926;-70
2023/08/11 05:46:53;;;;;;;;;;;;;;;22.35;62.24;97430.55;565422;251;66919;-70
2023/08/11 05:49:23;;;;;;;;;;;;;;;22.36;62.55;97432.16;565616;250;66935;-70
2023/08/11 05:51:52;;;;;;;;;;;;;;;22.36;62.18;97434.83;565477;250;64967;-71
2023/08/11 05:54:21;;;;;;;;;;;;;;;22.35;62.35;97435.91;565453;251;67409;-70
2023/08/11 05:56:52;;;;;;;;;;;;;;;22.36;62.46;97439.39;564890;250;67058;-70
2023/08/11 05:59:18;;;;;;;;;;;;;;;22.36;62.69;97437.51;565228;251;64948;-71
2023/08/11 06:01:45;;;;;;;;;;;;;;;22.35;60.49;97438.59;565269;251;67144;-70
2023/08/11 06:04:13;;;;;;;;;;;;;;;22.37;62.04;97443.66;565067;251;64002;-69
2023/08/11 06:06:40;;;;;;;;;;;;;;;22.36;61.69;97444.74;561899;248;62973;-68
2023/08/11 06:09:08;;;;;;;;;;;;;;;22.36;62.04;97439.39;567935;249;67280;-68
2023/08/11 06:11:36;;;;;;;;;;;;;;;22.36;63.07;97440.19;568031;249;66994;-69
2023/08/11 06:14:05;;;;;;;;;;;;;;;22.35;62.72;97435.91;568036;249;47681;-69
2023/08/11 06:16:33;;;;;;;;;;;;;;;22.36;62.97;97437.51;567991;249;67207;-68
2023/08/11 06:19:01;;;;;;;;;;;;;;;22.35;62.56;97432.44;568094;249;67093;-69
2023/08/11 06:21:29;;;;;;;;;;;;;;;22.37;62.17;97438.30;568118;249;64864;-67
2023/08/11 06:23:56;;;;;;;;;;;;;;;22.35;60.33;97438.59;568041;249;67235;-69
2023/08/11 06:26:24;;;;;;;;;;;;;;;22.36;60.38;97437.51;568073;249;67009;-72
2023/08/11 06:28:51;;;;;;;;;;;;;;;22.36;60.78;97428.67;568080;249;64921;-69
2023/08/11 06:31:21;;;;;;;;;;;;;;;22.36;61.70;97437.51;567985;249;47109;-69
2023/08/11 06:33:48;;;;;;;;;;;;;;;22.37;61.66;97444.48;568143;249;66777;-69
2023/08/11 06:36:16;;;;;;;;;;;;;;;22.37;62.01;97439.13;568068;249;63944;-69
2023/08/11 06:38:43;;;;;;;;;;;;;;;22.36;58.24;97440.19;568022;249;65031;-69
2023/08/11 06:41:11;;;;;;;;;;;;;;;22.38;61.33;97435.38;568114;249;67240;-68
2023/08/11 06:43:42;;;;;;;;;;;;;;;22.39;62.59;97441.52;568106;249;64898;-69
2023/08/11 06:46:10;;;;;;;;;;;;;;;22.39;61.76;97441.52;568000;249;65144;-69
2023/08/11 06:48:39;;;;;;;;;;;;;;;22.40;62.51;97437.80;568087;249;64819;-70
2023/08/11 06:51:06;;;;;;;;;;;;;;;22.39;63.11;97436.97;567971;248;62873;-70
2023/08/11 06:53:34;;;;;;;;;;;;;;;22.39;63.25;97442.32;569374;248;67225;-69
2023/08/11 06:56:01;;;;;;;;;;;;;;;22.39;63.22;97442.32;570321;248;66862;-69
2023/08/11 06:58:29;;;;;;;;;;;;;;;22.41;63.55;97446.63;570391;248;64790;-70
2023/08/11 07:00:56;;;;;;;;;;;;;;;22.41;63.10;97446.63;570328;248;66847;-70
2023/08/11 07:03:24;;;;;;;;;;;;;;;22.41;63.55;97443.95;570360;248;66708;-71
2023/08/11 07:05:51;;;;;;;;;;;;;;;22.42;63.66;97453.57;570405;248;64939;-71
2023/08/11 07:08:19;;;;;;;;;;;;;;;22.42;63.64;97442.86;570343;248;67435;-71
2023/08/11 07:10:47;;;;;;;;;;;;;;;22.42;63.66;97448.22;570348;248;67199;-70
2023/08/11 07:13:15;;;;;;;;;;;;;;;22.42;63.93;97449.02;570352;248;63660;-72
2023/08/11 07:15:45;;;;;;;;;;;;;;;22.42;64.33;97448.22;570385;248;67186;-70
2023/08/11 07:18:12;;;;;;;;;;;;;;;22.41;63.38;97450.09;570334;247;67118;-70
2023/08/11 07:20:42;;;;;;;;;;;;;;;22.43;62.54;97457.88;570326;248;65091;-70
2023/08/11 07:23:10;;;;;;;;;;;;;;;22.43;63.40;97460.55;570400;248;67215;-70
2023/08/11 07:25:38;;;;;;;;;;;;;;;22.44;63.83;97456.80;570364;248;67059;-70
2023/08/11 07:28:06;;;;;;;;;;;;;;;22.43;64.43;97456.00;570323;248;65151;-69
2023/08/11 07:30:33;;;;;;;;;;;;;;;22.42;61.30;97461.61;570337;248;66935;-68
2023/08/11 07:33:05;;;;;;;;;;;;;;;22.45;65.35;97461.06;570360;248;66945;-69
2023/08/11 07:35:30;;;;;;;;;;;;;;;22.45;65.61;97455.70;570184;248;64934;-69
2023/08/11 07:37:58;;;;;;;;;;;;;;;22.44;63.00;97464.83;570341;248;64916;-69
2023/08/11 07:40:27;;;;;;;;;;;;;;;22.44;62.41;97464.83;570218;248;48036;-73
2023/08/11 07:42:55;;;;;;;;;;;;;;;22.46;63.07;97462.69;570271;248;64951;-70
2023/08/11 07:45:22;;;;;;;;;;;;;;;22.46;62.81;97465.37;570412;248;67097;-70
2023/08/11 07:47:50;;;;;;;;;;;;;;;22.46;61.92;97473.41;570381;248;67588;-70
2023/08/11 07:50:17;;;;;;;;;;;;;;;22.47;61.00;97466.96;570291;248;65312;-69
2023/08/11 07:52:45;;;;;;;;;;;;;;;22.47;60.63;97464.28;569701;248;67117;-72
2023/08/11 07:55:13;;;;;;;;;;;;;;;22.48;61.50;97469.38;568021;250;67102;-69
2023/08/11 07:57:41;;;;;;;;;;;;;;;22.49;61.67;97462.15;568005;250;65230;-72
2023/08/11 08:00:16;;;;;;;;;;;;;;;22.49;61.55;97468.30;567980;250;64889;-71
2023/08/11 08:02:40;;;;;;;;;;;;;;;22.50;61.63;97466.42;561389;248;46903;-71
2023/08/11 08:05:09;;;;;;;;;;;;;;;22.49;63.21;97465.63;559865;253;64999;-71
2023/08/11 08:07:37;;;;;;;;;;;;;;;22.49;63.78;97468.30;559910;253;66942;-70
2023/08/11 08:10:11;;;;;;;;;;;;;;;22.49;64.79;97472.86;559891;253;67077;-68
2023/08/11 08:12:39;;;;;;;;;;;;;;;22.49;64.90;97478.22;559861;253;62998;-68
2023/08/11 08:15:09;;;;;;;;;;;;;;;22.47;64.99;97465.08;559876;253;64803;-67
2023/08/11 08:17:37;;;;;;;;;;;;;;;22.47;64.86;97470.44;558578;253;67011;-67
2023/08/11 08:20:16;;;;;;;;;;;;;;;22.46;64.84;97476.88;559783;251;65128;-67
2023/08/11 08:22:39;;;;;;;;;;;;;;;22.46;64.93;97478.76;559445;253;69057;-68
2023/08/11 08:25:07;;;;;;;;;;;;;;;22.45;65.03;97467.22;559687;251;67053;-68
2023/08/11 08:27:35;;;;;;;;;;;;;;;22.46;65.10;97470.72;559720;253;63889;-68
2023/08/11 08:30:03;;;;;;;;;;;;;;;22.46;64.96;97468.84;559767;253;65083;-68
2023/08/11 08:32:30;;;;;;;;;;;;;;;22.45;65.03;97471.78;559691;253;66965;-68
2023/08/11 08:34:58;;;;;;;;;;;;;;;22.45;64.99;97467.22;559870;253;63112;-66
2023/08/11 08:37:28;;;;;;;;;;;;;;;22.45;64.81;97472.58;559888;253;67286;-68
2023/08/11 08:39:55;;;;;;;;;;;;;;;22.45;64.79;97469.09;559797;251;67041;-67
2023/08/11 08:42:23;;;;;;;;;;;;;;;22.45;64.97;97467.22;559809;253;65110;-71
2023/08/11 08:44:52;;;;;;;;;;;;;;;22.46;64.92;97468.05;559859;253;67199;-72
2023/08/11 08:47:22;;;;;;;;;;;;;;;22.45;64.96;97466.42;559849;253;67054;-73
2023/08/11 08:49:50;;;;;;;;;;;;;;;22.45;65.28;97474.45;559716;253;62861;-71
2023/08/11 08:52:18;;;;;;;;;;;;;;;22.45;65.32;97464.54;559993;252;67176;-73
2023/08/11 08:54:47;;;;;;;;;;;;;;;22.45;64.82;97471.78;562096;252;67755;-73
2023/08/11 08:57:15;;;;;;;;;;;;;;;22.45;64.72;97469.09;562200;252;62813;-72
2023/08/11 08:59:42;;;;;;;;;;;;;;;22.45;64.79;97466.42;562162;252;67195;-69
2023/08/11 09:02:11;;;;;;;;;;;;;;;22.45;65.35;97464.54;562187;252;66273;-66
2023/08/11 09:04:39;;;;;;;;;;;;;;;22.45;64.91;97461.86;562147;252;62890;-71
2023/08/11 09:07:07;;;;;;;;;;;;;;;22.46;65.16;97457.33;562199;252;64941;-72
2023/08/11 09:09:37;;;;;;;;;;;;;;;22.45;65.37;97456.51;562123;252;65673;-71
2023/08/11 09:12:04;;;;;;;;;;;;;;;22.45;65.30;97455.70;562176;252;64032;-72
2023/08/11 09:14:31;;;;;;;;;;;;;;;22.46;65.46;97454.66;562165;252;64639;-73
2023/08/11 09:17:05;;;;;;;;;;;;;;;22.45;65.17;97455.70;562098;252;66710;-71
2023/08/11 09:19:32;;;;;;;;;;;;;;;22.44;64.76;97460.27;562111;252;62818;-67
2023/08/11 09:22:03;;;;;;;;;;;;;;;22.44;59.81;97457.59;562181;252;64710;-69
2023/08/11 09:24:30;;;;;;;;;;;;;;;22.46;63.66;97470.72;562160;252;65148;-69
2023/08/11 09:26:59;;;;;;;;;;;;;;;22.46;64.54;97468.05;562215;252;63018;-69
2023/08/11 09:29:28;;;;;;;;;;;;;;;22.46;64.45;97458.13;562160;252;66824;-65
2023/08/11 09:31:56;;;;;;;;;;;;;;;22.45;63.99;97459.19;562143;252;66860;-69
2023/08/11 09:34:23;;;;;;;;;;;;;;;22.47;63.80;97464.28;562050;252;63092;-68
2023/08/11 09:36:51;;;;;;;;;;;;;;;22.46;64.53;97463.48;562104;252;67530;-68
2023/08/11 09:39:18;;;;;;;;;;;;;;;22.47;64.14;97458.92;562191;252;67034;-70
2023/08/11 09:41:48;;;;;;;;;;;;;;;22.47;64.03;97458.92;562186;252;64173;-67
2023/08/11 09:44:17;;;;;;;;;;;;;;;22.47;64.61;97456.25;562121;250;67159;-73
2023/08/11 09:46:46;;;;;;;;;;;;;;;22.47;63.99;97456.25;562227;252;66875;-71
2023/08/11 09:49:13;;;;;;;;;;;;;;;22.47;64.20;97450.89;562219;252;65007;-70
2023/08/11 09:51:41;;;;;;;;;;;;;;;22.46;64.82;97455.45;562152;252;67066;-70
2023/08/11 09:54:09;;;;;;;;;;;;;;;22.46;64.36;97447.42;560281;252;67086;-70
2023/08/11 09:56:37;;;;;;;;;;;;;;;22.46;64.20;97455.45;559874;253;64936;-70
2023/08/11 09:59:05;;;;;;;;;;;;;;;22.48;62.51;97457.84;559832;251;67325;-70
2023/08/11 10:01:36;;;;;;;;;;;;;;;22.47;63.34;97454.37;559944;253;66991;-71
2023/08/11 10:04:07;;;;;;;;;;;;;;;22.48;64.65;97455.16;559815;251;62987;-70
2023/08/11 10:06:36;;;;;;;;;;;;;;;22.48;64.25;97458.67;559825;253;64906;-70
2023/08/11 10:09:04;;;;;;;;;;;;;;;22.48;64.51;97453.31;559909;253;66859;-70
2023/08/11 10:11:33;;;;;;;;;;;;;;;22.47;64.39;97453.57;560494;248;65142;-70
2023/08/11 10:14:02;;;;;;;;;;;;;;;22.46;64.06;97451.98;564422;249;65731;-70
2023/08/11 10:16:29;;;;;;;;;;;;;;;22.47;64.06;97453.57;560345;253;66720;-70
2023/08/11 10:19:00;;;;;;;;;;;;;;;22.47;64.49;97437.50;560214;253;46226;-70
2023/08/11 10:21:27;;;;;;;;;;;;;;;22.46;64.51;97447.42;560358;253;67385;-70
2023/08/11 10:23:55;;;;;;;;;;;;;;;22.46;64.75;97436.70;560346;253;67450;-70
2023/08/11 10:26:23;;;;;;;;;;;;;;;22.46;64.66;97435.91;559848;253;64878;-71
2023/08/11 10:28:51;;;;;;;;;;;;;;;22.46;64.58;97435.91;559853;253;67364;-70
2023/08/11 10:31:18;;;;;;;;;;;;;;;22.46;64.76;97441.27;560365;253;65137;-71
2023/08/11 10:33:50;;;;;;;;;;;;;;;22.45;64.76;97439.64;560317;253;62773;-71
2023/08/11 10:36:19;;;;;;;;;;;;;;;22.47;65.41;97442.86;560346;253;67355;-71
2023/08/11 10:38:48;;;;;;;;;;;;;;;22.46;65.26;97430.55;560382;253;67086;-73
2023/08/11 10:41:17;;;;;;;;;;;;;;;22.46;65.34;97436.70;559996;253;64972;-72
2023/08/11 10:43:46;;;;;;;;;;;;;;;22.46;65.32;97425.99;560356;253;66870;-70
2023/08/11 10:46:24;;;;;;;;;;;;;;;22.47;65.08;97426.79;560323;253;67495;-70
2023/08/11 10:48:52;;;;;;;;;;;;;;;22.46;65.29;97420.64;560248;253;64923;-69
2023/08/11 10:51:22;;;;;;;;;;;;;;;22.46;65.15;97417.95;560335;253;67923;-71
2023/08/11 10:53:49;;;;;;;;;;;;;;;22.46;65.14;97417.95;560362;251;72321;-69
2023/08/11 10:56:18;;;;;;;;;;;;;;;22.46;65.26;97420.64;560331;253;65022;-69
2023/08/11 10:58:47;;;;;;;;;;;;;;;22.47;65.32;97418.75;560043;253;65079;-70
2023/08/11 11:01:14;;;;;;;;;;;;;;;22.46;65.17;97417.95;560375;253;67085;-70
2023/08/11 11:03:42;;;;;;;;;;;;;;;22.46;65.18;97409.92;560284;253;64953;-70
2023/08/11 11:06:09;;;;;;;;;;;;;;;22.46;65.34;97414.48;560404;253;67149;-70
2023/08/11 11:08:37;;;;;;;;;;;;;;;22.47;65.35;97403.48;560349;253;66956;-70
2023/08/11 11:11:04;;;;;;;;;;;;;;;22.47;65.15;97408.05;560340;253;66075;-70
2023/08/11 11:13:32;;;;;;;;;;;;;;;22.47;65.34;97400.01;560361;253;67135;-70
2023/08/11 11:15:59;;;;;;;;;;;;;;;22.47;65.37;97406.16;560275;253;67043;-70
2023/08/11 11:18:27;;;;;;;;;;;;;;;22.46;65.29;97399.21;560378;253;64939;-72
2023/08/11 11:20:57;;;;;;;;;;;;;;;22.46;65.10;97393.86;560267;253;66905;-73
2023/08/11 11:23:26;;;;;;;;;;;;;;;22.47;63.90;97400.01;560209;253;49060;-72
2023/08/11 11:25:54;;;;;;;;;;;;;;;22.48;64.58;97402.43;560359;253;65174;-72
2023/08/11 11:28:21;;;;;;;;;;;;;;;22.48;64.49;97399.75;560313;253;67234;-69
2023/08/11 11:30:49;;;;;;;;;;;;;;;22.48;63.44;97402.43;564238;249;66670;-71
2023/08/11 11:33:16;;;;;;;;;;;;;;;22.48;62.79;97396.25;565150;251;62845;-70
2023/08/11 11:35:44;;;;;;;;;;;;;;;22.48;62.80;97396.25;565027;251;67168;-71
2023/08/11 11:38:11;;;;;;;;;;;;;;;22.49;62.10;97392.52;564919;251;67271;-70
2023/08/11 11:40:39;;;;;;;;;;;;;;;22.49;62.95;97393.31;564599;249;63651;-70
2023/08/11 11:43:06;;;;;;;;;;;;;;;22.49;63.09;97389.84;564695;249;64609;-71
2023/08/11 11:45:34;;;;;;;;;;;;;;;22.49;62.88;97393.31;564941;249;66938;-72
2023/08/11 11:48:02;;;;;;;;;;;;;;;22.49;62.06;97389.84;564842;249;64923;-71
2023/08/11 11:50:29;;;;;;;;;;;;;;;22.50;63.32;97386.07;565217;250;65042;-71
2023/08/11 11:52:57;;;;;;;;;;;;;;;22.50;63.05;97386.07;565236;251;65737;-70
2023/08/11 11:55:26;;;;;;;;;;;;;;;22.50;62.55;97383.39;564892;249;64898;-70
2023/08/11 11:57:55;;;;;;;;;;;;;;;22.50;62.60;97386.07;559576;253;66846;-70
2023/08/11 12:00:25;;;;;;;;;;;;;;;22.50;62.68;97386.87;559470;253;66929;-70
2023/08/11 12:02:53;;;;;;;;;;;;;;;22.51;63.69;97385.81;559419;253;65043;-71
2023/08/11 12:05:21;;;;;;;;;;;;;;;22.51;62.90;97387.70;559470;253;65185;-70
2023/08/11 12:07:49;;;;;;;;;;;;;;;22.51;63.55;97385.02;559500;253;64927;-70
2023/08/11 12:10:20;;;;;;;;;;;;;;;22.50;63.00;97384.19;559512;253;65206;-70
2023/08/11 12:12:45;;;;;;;;;;;;;;;22.51;62.49;97387.70;559405;253;67187;-70
2023/08/11 12:15:17;;;;;;;;;;;;;;;22.51;62.91;97385.02;559486;253;67885;-70
2023/08/11 12:17:45;;;;;;;;;;;;;;;22.50;62.14;97378.83;559493;253;62894;-70
2023/08/11 12:20:12;;;;;;;;;;;;;;;22.51;62.70;97390.38;559484;253;64954;-70
2023/08/11 12:22:42;;;;;;;;;;;;;;;22.52;63.80;97381.25;559430;253;66719;-71
2023/08/11 12:25:10;;;;;;;;;;;;;;;22.50;63.25;97378.03;559525;253;65298;-71
2023/08/11 12:27:38;;;;;;;;;;;;;;;22.51;62.93;97382.34;562749;249;64863;-71
2023/08/11 12:30:06;;;;;;;;;;;;;;;22.50;62.04;97386.87;565367;251;66950;-72
2023/08/11 12:32:34;;;;;;;;;;;;;;;22.50;62.35;97376.16;565159;250;63861;-73
2023/08/11 12:35:02;;;;;;;;;;;;;;;22.50;61.59;97373.48;564983;250;64279;-73
2023/08/11 12:37:32;;;;;;;;;;;;;;;22.52;60.96;97375.90;564156;249;48997;-73
2023/08/11 12:39:59;;;;;;;;;;;;;;;22.51;61.07;97369.74;564143;249;64943;-66
2023/08/11 12:42:32;;;;;;;;;;;;;;;22.54;61.88;97369.20;564737;249;66905;-68
2023/08/11 12:44:56;;;;;;;;;;;;;;;22.57;59.83;97367.85;564227;249;66753;-68
2023/08/11 12:47:24;;;;;;;;;;;;;;;22.61;59.67;97360.86;564898;249;62944;-76
2023/08/11 12:49:52;;;;;;;;;;;;;;;22.65;59.40;97359.25;564712;250;65787;-73
2023/08/11 12:52:19;;;;;;;;;;;;;;;22.67;58.97;97357.11;563200;249;65172;-70